createdAt,value
2018-07-30T00:00:02.864Z,19.93
2018-07-30T00:02:37.125Z,20.80
2018-07-30T00:05:08.314Z,19.27
2018-07-30T00:07:37.282Z,18.83
2018-07-30T00:10:06.386Z,20.10
2018-07-30T00:12:35.560Z,19.77
2018-07-30T00:15:04.767Z,18.93
2018-07-30T00:17:33.577Z,16.33
2018-07-30T00:20:02.418Z,15.03
2018-07-30T00:22:31.226Z,15.87
2018-07-30T00:24:59.976Z,16.93
2018-07-30T00:27:28.823Z,15.27
2018-07-30T00:29:57.610Z,13.97
2018-07-30T00:32:26.398Z,15.00
2018-07-30T00:34:55.150Z,12.97
2018-07-30T00:37:23.914Z,14.37
2018-07-30T00:39:52.693Z,14.43
2018-07-30T00:42:21.501Z,14.10
2018-07-30T00:44:50.478Z,13.70
2018-07-30T00:47:19.273Z,12.67
2018-07-30T00:49:48.051Z,12.07
2018-07-30T00:52:16.835Z,12.30
2018-07-30T00:54:45.599Z,10.67
2018-07-30T00:57:14.363Z,11.33
2018-07-30T00:59:43.321Z,11.00
2018-07-30T01:02:12.100Z,10.10
2018-07-30T01:04:40.865Z,10.67
2018-07-30T01:07:09.682Z,10.20
2018-07-30T01:09:38.496Z,10.63
2018-07-30T01:12:07.336Z,11.70
2018-07-30T01:14:36.106Z,11.23
2018-07-30T01:17:04.918Z,10.47
2018-07-30T01:19:33.715Z,9.93
2018-07-30T01:22:02.500Z,10.73
2018-07-30T01:24:31.332Z,10.30
2018-07-30T01:27:00.114Z,9.80
2018-07-30T01:29:28.893Z,8.70
2018-07-30T01:31:57.668Z,8.40
2018-07-30T01:34:26.421Z,7.47
2018-07-30T01:36:55.217Z,7.33
2018-07-30T01:39:24.021Z,8.90
2018-07-30T01:41:52.831Z,9.73
2018-07-30T01:44:21.624Z,8.03
2018-07-30T01:46:50.430Z,9.27
2018-07-30T01:49:19.229Z,9.70
2018-07-30T01:51:48.044Z,9.03
2018-07-30T01:54:16.825Z,9.13
2018-07-30T01:56:45.587Z,9.93
2018-07-30T01:59:14.443Z,9.03
2018-07-30T02:01:43.241Z,10.10
2018-07-30T02:04:12.017Z,9.67
2018-07-30T02:06:40.798Z,9.93
2018-07-30T02:09:10.853Z,10.97
2018-07-30T02:11:39.675Z,11.00
2018-07-30T02:14:08.741Z,12.97
2018-07-30T02:16:37.569Z,11.57
2018-07-30T02:19:06.426Z,11.57
2018-07-30T02:21:35.299Z,11.90
2018-07-30T02:24:04.140Z,12.63
2018-07-30T02:26:32.937Z,10.93
2018-07-30T02:29:01.804Z,11.20
2018-07-30T02:31:30.658Z,11.40
2018-07-30T02:33:59.478Z,12.07
2018-07-30T02:36:28.320Z,10.80
2018-07-30T02:38:57.098Z,11.03
2018-07-30T02:41:25.853Z,11.20
2018-07-30T02:43:54.667Z,11.47
2018-07-30T02:46:23.457Z,10.83
2018-07-30T02:48:52.329Z,11.77
2018-07-30T02:51:21.155Z,11.67
2018-07-30T02:53:49.933Z,11.87
2018-07-30T02:56:18.739Z,12.07
2018-07-30T02:58:47.498Z,11.63
2018-07-30T03:01:16.273Z,9.57
2018-07-30T03:03:45.070Z,8.67
2018-07-30T03:06:13.908Z,11.10
2018-07-30T03:08:42.685Z,9.23
2018-07-30T03:11:11.444Z,9.23
2018-07-30T03:13:40.195Z,9.13
2018-07-30T03:16:09.000Z,8.87
2018-07-30T03:18:37.775Z,8.53
2018-07-30T03:21:06.815Z,8.47
2018-07-30T03:23:35.569Z,8.50
2018-07-30T03:26:04.388Z,9.17
2018-07-30T03:28:33.377Z,8.60
2018-07-30T03:31:02.235Z,8.00
2018-07-30T03:33:31.038Z,7.87
2018-07-30T03:35:59.858Z,7.87
2018-07-30T03:38:28.669Z,7.40
2018-07-30T03:40:57.477Z,6.70
2018-07-30T03:43:26.493Z,6.53
2018-07-30T03:45:55.245Z,7.13
2018-07-30T03:48:24.010Z,7.70
2018-07-30T03:50:52.818Z,6.47
2018-07-30T03:53:21.605Z,6.53
2018-07-30T03:55:50.382Z,6.47
2018-07-30T03:58:19.188Z,7.27
2018-07-30T04:00:47.970Z,6.57
2018-07-30T04:03:16.754Z,6.40
2018-07-30T04:05:45.568Z,6.20
2018-07-30T04:08:14.369Z,6.70
2018-07-30T04:10:43.268Z,6.97
2018-07-30T04:13:12.050Z,7.37
2018-07-30T04:15:40.846Z,6.10
2018-07-30T04:18:09.612Z,6.73
2018-07-30T04:20:38.428Z,6.13
2018-07-30T04:23:07.239Z,6.53
2018-07-30T04:25:35.990Z,7.00
2018-07-30T04:28:04.797Z,6.20
2018-07-30T04:30:33.562Z,6.83
2018-07-30T04:33:02.346Z,7.50
2018-07-30T04:35:31.139Z,6.93
2018-07-30T04:37:59.956Z,6.70
2018-07-30T04:40:28.713Z,6.87
2018-07-30T04:42:57.472Z,7.10
2018-07-30T04:45:26.243Z,7.50
2018-07-30T04:47:55.033Z,7.17
2018-07-30T04:50:23.848Z,7.73
2018-07-30T04:52:52.738Z,7.77
2018-07-30T04:55:22.866Z,7.90
2018-07-30T04:57:51.614Z,8.67
2018-07-30T05:00:20.405Z,8.20
2018-07-30T05:02:49.220Z,8.57
2018-07-30T05:05:17.998Z,8.47
2018-07-30T05:07:46.749Z,8.63
2018-07-30T05:10:15.509Z,8.37
2018-07-30T05:12:44.284Z,8.83
2018-07-30T05:15:13.051Z,9.27
2018-07-30T05:17:41.959Z,10.73
2018-07-30T05:20:10.766Z,9.50
2018-07-30T05:22:39.583Z,9.83
2018-07-30T05:25:08.367Z,9.37
2018-07-30T05:27:37.129Z,11.93
2018-07-30T05:30:06.557Z,8.43
2018-07-30T05:32:35.329Z,9.73
2018-07-30T05:35:04.310Z,9.00
2018-07-30T05:37:33.113Z,8.93
2018-07-30T05:40:01.948Z,9.87
2018-07-30T05:42:30.988Z,8.93
2018-07-30T05:44:59.785Z,9.37
2018-07-30T05:47:28.576Z,9.37
2018-07-30T05:49:57.373Z,9.30
2018-07-30T05:52:26.162Z,10.60
2018-07-30T05:54:54.925Z,10.03
2018-07-30T05:57:23.698Z,9.90
2018-07-30T05:59:52.472Z,9.90
2018-07-30T06:02:21.275Z,10.30
2018-07-30T06:04:50.065Z,11.00
2018-07-30T06:07:18.841Z,10.80
2018-07-30T06:09:47.662Z,11.67
2018-07-30T06:12:16.417Z,11.37
2018-07-30T06:14:45.185Z,11.23
2018-07-30T06:17:13.941Z,11.90
2018-07-30T06:19:42.734Z,12.07
2018-07-30T06:22:11.563Z,13.63
2018-07-30T06:24:40.355Z,12.07
2018-07-30T06:27:09.158Z,12.57
2018-07-30T06:29:37.958Z,13.93
2018-07-30T06:32:06.816Z,13.50
2018-07-30T06:34:35.684Z,13.63
2018-07-30T06:37:04.528Z,15.27
2018-07-30T06:39:33.310Z,14.50
2018-07-30T06:42:02.082Z,15.60
2018-07-30T06:44:30.862Z,15.10
2018-07-30T06:46:59.689Z,14.90
2018-07-30T06:49:28.460Z,15.37
2018-07-30T06:51:57.305Z,15.57
2018-07-30T06:54:26.082Z,15.23
2018-07-30T06:56:54.948Z,15.80
2018-07-30T06:59:23.777Z,16.27
2018-07-30T07:01:53.253Z,15.80
2018-07-30T07:04:22.341Z,16.07
2018-07-30T07:06:51.149Z,15.20
2018-07-30T07:09:19.937Z,14.60
2018-07-30T07:11:48.747Z,14.60
2018-07-30T07:14:17.531Z,15.53
2018-07-30T07:16:49.998Z,14.57
2018-07-30T07:19:18.821Z,14.10
2018-07-30T07:21:47.752Z,16.00
2018-07-30T07:24:16.890Z,15.53
2018-07-30T07:26:45.766Z,15.97
2018-07-30T07:29:14.587Z,14.73
2018-07-30T07:31:43.446Z,14.83
2018-07-30T07:34:12.250Z,15.03
2018-07-30T07:36:41.106Z,14.60
2018-07-30T07:39:10.812Z,16.20
2018-07-30T07:41:39.694Z,13.77
2018-07-30T07:44:08.566Z,15.47
2018-07-30T07:46:37.687Z,13.57
2018-07-30T07:49:06.582Z,16.20
2018-07-30T07:51:39.211Z,15.37
2018-07-30T07:54:07.990Z,14.33
2018-07-30T07:56:36.835Z,14.10
2018-07-30T07:59:05.746Z,14.90
2018-07-30T08:01:34.543Z,13.63
2018-07-30T08:04:03.372Z,12.87
2018-07-30T08:06:32.255Z,14.10
2018-07-30T08:09:01.031Z,12.87
2018-07-30T08:11:29.902Z,13.63
2018-07-30T08:13:58.747Z,13.50
2018-07-30T08:16:27.576Z,14.77
2018-07-30T08:18:56.403Z,15.50
2018-07-30T08:21:25.223Z,15.17
2018-07-30T08:23:54.087Z,13.20
2018-07-30T08:26:22.943Z,14.17
2018-07-30T08:28:51.929Z,14.73
2018-07-30T08:31:20.791Z,15.47
2018-07-30T08:33:49.627Z,14.07
2018-07-30T08:36:18.634Z,14.57
2018-07-30T08:38:47.494Z,13.80
2018-07-30T08:41:16.386Z,14.43
2018-07-30T08:43:45.238Z,12.97
2018-07-30T08:46:14.071Z,13.93
2018-07-30T08:48:42.922Z,14.57
2018-07-30T08:51:11.714Z,13.73
2018-07-30T08:53:40.537Z,13.07
2018-07-30T08:56:09.365Z,13.57
2018-07-30T08:58:38.169Z,12.93
2018-07-30T09:01:07.182Z,11.37
2018-07-30T09:03:36.011Z,10.07
2018-07-30T09:06:04.862Z,9.93
2018-07-30T09:08:33.679Z,11.30
2018-07-30T09:11:02.523Z,11.23
2018-07-30T09:13:31.301Z,12.70
2018-07-30T09:16:00.102Z,11.63
2018-07-30T09:18:28.918Z,13.20
2018-07-30T09:20:57.745Z,11.17
2018-07-30T09:23:26.553Z,15.00
2018-07-30T09:25:55.401Z,15.20
2018-07-30T09:28:24.256Z,12.17
2018-07-30T09:30:53.070Z,13.93
2018-07-30T09:33:21.946Z,13.43
2018-07-30T09:35:50.794Z,9.13
2018-07-30T09:38:19.608Z,8.57
2018-07-30T09:40:48.441Z,9.90
2018-07-30T09:43:17.242Z,12.57
2018-07-30T09:45:46.059Z,12.60
2018-07-30T09:48:14.930Z,13.60
2018-07-30T09:50:43.769Z,12.20
2018-07-30T09:53:12.621Z,7.03
2018-07-30T09:55:41.831Z,7.17
2018-07-30T09:58:10.637Z,6.97
2018-07-30T10:00:44.682Z,6.33
2018-07-30T10:03:13.558Z,7.80
2018-07-30T10:05:42.346Z,8.47
2018-07-30T10:08:11.140Z,7.83
2018-07-30T10:10:39.961Z,7.50
2018-07-30T10:13:08.757Z,8.10
2018-07-30T10:15:37.567Z,7.10
2018-07-30T10:18:06.958Z,7.90
2018-07-30T10:20:35.734Z,7.13
2018-07-30T10:23:04.519Z,7.20
2018-07-30T10:25:33.299Z,7.23
2018-07-30T10:28:02.082Z,7.87
2018-07-30T10:30:31.011Z,7.77
2018-07-30T10:32:59.804Z,7.93
2018-07-30T10:35:28.574Z,7.63
2018-07-30T10:37:57.362Z,8.17
2018-07-30T10:40:26.180Z,7.30
2018-07-30T10:42:54.945Z,8.10
2018-07-30T10:45:23.821Z,7.70
2018-07-30T10:47:52.597Z,7.43
2018-07-30T10:50:21.475Z,8.40
2018-07-30T10:52:50.261Z,7.30
2018-07-30T10:55:19.022Z,7.97
2018-07-30T10:57:47.821Z,7.50
2018-07-30T11:00:16.649Z,8.00
2018-07-30T11:02:45.457Z,6.87
2018-07-30T11:05:14.270Z,7.47
2018-07-30T11:07:43.069Z,7.90
2018-07-30T11:10:11.836Z,7.97
2018-07-30T11:12:40.606Z,7.30
2018-07-30T11:15:09.419Z,8.50
2018-07-30T11:17:38.224Z,7.83
2018-07-30T11:20:07.055Z,8.43
2018-07-30T11:22:35.850Z,8.43
2018-07-30T11:25:04.715Z,8.40
2018-07-30T11:27:33.557Z,8.40
2018-07-30T11:30:02.354Z,8.83
2018-07-30T11:32:31.182Z,8.23
2018-07-30T11:34:59.956Z,9.10
2018-07-30T11:37:28.706Z,13.80
2018-07-30T11:39:57.475Z,11.93
2018-07-30T11:42:26.291Z,9.87
2018-07-30T11:44:55.125Z,8.60
2018-07-30T11:47:23.930Z,8.53
2018-07-30T11:49:52.726Z,7.87
2018-07-30T11:52:21.533Z,7.87
2018-07-30T11:54:50.500Z,8.47
2018-07-30T11:57:19.325Z,9.17
2018-07-30T11:59:48.116Z,8.63
2018-07-30T12:02:17.016Z,8.30
2018-07-30T12:04:45.886Z,10.30
2018-07-30T12:07:14.723Z,12.17
2018-07-30T12:09:43.490Z,8.67
2018-07-30T12:12:12.341Z,9.93
2018-07-30T12:14:41.205Z,10.80
2018-07-30T12:17:09.994Z,11.80
2018-07-30T12:19:38.797Z,17.20
2018-07-30T12:22:07.617Z,19.03
2018-07-30T12:24:36.571Z,26.63
2018-07-30T12:27:05.429Z,23.23
2018-07-30T12:29:34.245Z,13.00
2018-07-30T12:32:03.167Z,11.73
2018-07-30T12:34:31.929Z,10.37
2018-07-30T12:37:00.796Z,10.43
2018-07-30T12:39:29.593Z,11.70
2018-07-30T12:41:58.475Z,10.63
2018-07-30T12:44:27.245Z,11.03
2018-07-30T12:46:56.038Z,10.47
2018-07-30T12:49:24.817Z,10.00
2018-07-30T12:51:53.601Z,12.43
2018-07-30T12:54:22.390Z,10.93
2018-07-30T12:56:51.152Z,12.50
2018-07-30T12:59:19.925Z,11.43
2018-07-30T13:01:48.677Z,15.27
2018-07-30T13:04:17.522Z,12.63
2018-07-30T13:06:46.302Z,17.93
2018-07-30T13:09:15.278Z,18.10
2018-07-30T13:11:44.093Z,14.30
2018-07-30T13:14:12.862Z,14.87
2018-07-30T13:16:41.648Z,13.07
2018-07-30T13:19:10.442Z,11.70
2018-07-30T13:21:39.228Z,10.77
2018-07-30T13:24:08.034Z,12.47
2018-07-30T13:26:37.447Z,13.30
2018-07-30T13:29:06.276Z,12.80
2018-07-30T13:31:35.089Z,10.80
2018-07-30T13:34:03.877Z,11.80
2018-07-30T13:36:32.637Z,12.37
2018-07-30T13:39:01.419Z,12.03
2018-07-30T13:41:30.215Z,11.73
2018-07-30T13:43:58.993Z,12.07
2018-07-30T13:46:28.051Z,12.73
2018-07-30T13:48:56.856Z,11.27
2018-07-30T13:51:25.649Z,11.23
2018-07-30T13:53:54.637Z,12.53
2018-07-30T13:56:23.452Z,13.60
2018-07-30T13:58:52.411Z,13.90
2018-07-30T14:01:21.374Z,13.67
2018-07-30T14:03:50.211Z,12.93
2018-07-30T14:06:19.072Z,13.53
2018-07-30T14:08:48.062Z,14.23
2018-07-30T14:11:16.860Z,13.57
2018-07-30T14:13:45.674Z,13.40
2018-07-30T14:16:14.500Z,13.70
2018-07-30T14:18:43.286Z,13.03
2018-07-30T14:21:12.086Z,13.40
2018-07-30T14:23:40.848Z,13.07
2018-07-30T14:26:09.641Z,13.43
2018-07-30T14:28:38.447Z,12.03
2018-07-30T14:31:07.434Z,12.80
2018-07-30T14:33:36.228Z,12.83
2018-07-30T14:36:05.270Z,13.37
2018-07-30T14:38:34.061Z,13.70
2018-07-30T14:41:02.846Z,14.27
2018-07-30T14:43:31.656Z,14.37
2018-07-30T14:46:00.447Z,14.33
2018-07-30T14:48:29.285Z,15.17
2018-07-30T14:50:58.071Z,15.77
2018-07-30T14:53:26.914Z,15.93
2018-07-30T14:55:55.756Z,14.03
2018-07-30T14:58:24.583Z,13.00
2018-07-30T15:00:53.373Z,13.00
2018-07-30T15:03:22.165Z,14.50
2018-07-30T15:05:51.017Z,13.37
2018-07-30T15:08:19.809Z,13.47
2018-07-30T15:10:48.610Z,14.57
2018-07-30T15:13:17.434Z,13.43
2018-07-30T15:15:46.218Z,13.33
2018-07-30T15:18:14.979Z,13.93
2018-07-30T15:20:43.795Z,13.40
2018-07-30T15:23:12.569Z,13.33
2018-07-30T15:25:41.387Z,11.93
2018-07-30T15:28:10.405Z,12.73
2018-07-30T15:30:39.200Z,13.77
2018-07-30T15:33:08.000Z,13.90
2018-07-30T15:35:43.349Z,13.87
2018-07-30T15:38:12.274Z,14.17
2018-07-30T15:40:41.164Z,13.43
2018-07-30T15:43:09.957Z,13.33
2018-07-30T15:45:38.787Z,12.97
2018-07-30T15:48:07.701Z,13.57
2018-07-30T15:50:36.485Z,13.93
2018-07-30T15:53:05.303Z,13.63
2018-07-30T15:55:34.085Z,14.07
2018-07-30T15:58:02.944Z,13.10
2018-07-30T16:00:31.765Z,14.07
2018-07-30T16:03:00.589Z,13.70
2018-07-30T16:05:29.399Z,13.63
2018-07-30T16:07:58.256Z,14.50
2018-07-30T16:10:27.097Z,14.37
2018-07-30T16:12:55.872Z,16.83
2018-07-30T16:15:25.373Z,15.93
2018-07-30T16:17:54.315Z,15.27
2018-07-30T16:20:23.159Z,14.60
2018-07-30T16:22:51.942Z,15.27
2018-07-30T16:25:20.792Z,15.43
2018-07-30T16:27:49.589Z,13.67
2018-07-30T16:30:18.491Z,14.73
2018-07-30T16:32:47.319Z,15.73
2018-07-30T16:35:16.091Z,15.40
2018-07-30T16:37:44.989Z,16.17
2018-07-30T16:40:13.827Z,13.37
2018-07-30T16:42:42.798Z,15.67
2018-07-30T16:45:11.684Z,14.87
2018-07-30T16:47:40.524Z,15.80
2018-07-30T16:50:09.964Z,14.97
2018-07-30T16:52:38.823Z,15.73
2018-07-30T16:55:07.968Z,15.90
2018-07-30T16:57:36.794Z,16.77
2018-07-30T17:00:08.066Z,17.10
2018-07-30T17:02:36.893Z,15.93
2018-07-30T17:05:06.195Z,16.97
2018-07-30T17:07:34.971Z,16.40
2018-07-30T17:10:03.857Z,17.30
2018-07-30T17:12:32.693Z,16.97
2018-07-30T17:15:01.486Z,16.87
2018-07-30T17:17:30.453Z,16.27
2018-07-30T17:19:59.317Z,16.07
2018-07-30T17:22:28.157Z,16.87
2018-07-30T17:24:56.951Z,18.03
2018-07-30T17:27:25.971Z,17.33
2018-07-30T17:29:54.836Z,17.93
2018-07-30T17:32:23.883Z,16.27
2018-07-30T17:34:52.891Z,16.97
2018-07-30T17:37:21.715Z,17.00
2018-07-30T17:39:50.638Z,17.40
2018-07-30T17:42:19.458Z,16.70
2018-07-30T17:44:48.255Z,17.50
2018-07-30T17:47:17.054Z,16.80
2018-07-30T17:49:45.866Z,17.50
2018-07-30T17:52:14.637Z,17.07
2018-07-30T17:54:43.509Z,17.83
2018-07-30T17:57:12.349Z,17.93
2018-07-30T17:59:41.139Z,18.07
2018-07-30T18:02:09.913Z,18.80
2018-07-30T18:04:38.700Z,21.37
2018-07-30T18:07:07.526Z,20.57
2018-07-30T18:09:36.328Z,19.87
2018-07-30T18:12:05.158Z,18.50
2018-07-30T18:14:33.976Z,20.43
2018-07-30T18:17:02.730Z,20.57
2018-07-30T18:19:31.509Z,21.33
2018-07-30T18:22:00.269Z,22.87
2018-07-30T18:24:29.098Z,27.90
2018-07-30T18:26:57.904Z,18.47
2018-07-30T18:29:26.724Z,20.17
2018-07-30T18:31:55.493Z,18.60
2018-07-30T18:34:24.489Z,18.30
2018-07-30T18:36:53.337Z,19.70
2018-07-30T18:39:22.148Z,17.13
2018-07-30T18:41:50.987Z,19.07
2018-07-30T18:44:19.812Z,18.30
2018-07-30T18:46:48.611Z,17.27
2018-07-30T18:49:17.426Z,17.63
2018-07-30T18:51:46.217Z,17.30
2018-07-30T18:54:15.001Z,17.83
2018-07-30T18:56:43.810Z,19.30
2018-07-30T18:59:12.712Z,17.73
2018-07-30T19:01:41.535Z,17.40
2018-07-30T19:04:10.338Z,18.80
2018-07-30T19:06:39.193Z,18.27
2018-07-30T19:09:09.217Z,18.17
2018-07-30T19:11:38.121Z,18.00
2018-07-30T19:14:07.120Z,18.80
2018-07-30T19:16:35.920Z,18.87
2018-07-30T19:19:04.797Z,18.93
2018-07-30T19:21:33.592Z,17.27
2018-07-30T19:24:02.458Z,17.37
2018-07-30T19:26:31.225Z,15.30
2018-07-30T19:29:00.034Z,15.67
2018-07-30T19:31:28.805Z,13.80
2018-07-30T19:33:57.589Z,15.00
2018-07-30T19:36:27.318Z,15.00
2018-07-30T19:38:56.106Z,13.97
2018-07-30T19:41:24.907Z,15.30
2018-07-30T19:43:53.757Z,14.93
2018-07-30T19:46:22.641Z,16.00
2018-07-30T19:48:51.673Z,15.63
2018-07-30T19:51:20.465Z,14.67
2018-07-30T19:53:49.838Z,14.60
2018-07-30T19:56:18.665Z,15.57
2018-07-30T19:58:47.464Z,15.73
2018-07-30T20:01:16.265Z,15.57
2018-07-30T20:03:45.047Z,15.63
2018-07-30T20:06:13.943Z,16.93
2018-07-30T20:08:42.749Z,15.87
2018-07-30T20:11:11.677Z,15.73
2018-07-30T20:13:40.506Z,15.90
2018-07-30T20:16:09.293Z,16.53
2018-07-30T20:18:38.163Z,16.63
2018-07-30T20:21:06.977Z,16.03
2018-07-30T20:23:35.785Z,15.97
2018-07-30T20:26:04.605Z,16.20
2018-07-30T20:28:33.394Z,15.93
2018-07-30T20:31:02.224Z,16.90
2018-07-30T20:33:31.163Z,17.87
2018-07-30T20:36:00.016Z,17.97
2018-07-30T20:38:28.885Z,17.73
2018-07-30T20:40:57.750Z,17.90
2018-07-30T20:43:26.521Z,17.80
2018-07-30T20:45:55.441Z,16.70
2018-07-30T20:48:24.657Z,17.90
2018-07-30T20:50:53.585Z,17.97
2018-07-30T20:53:22.474Z,16.70
2018-07-30T20:55:51.491Z,17.90
2018-07-30T20:58:20.279Z,17.17
2018-07-30T21:00:49.116Z,17.33
2018-07-30T21:03:18.130Z,16.37
2018-07-30T21:05:46.954Z,16.03
2018-07-30T21:08:16.370Z,17.13
2018-07-30T21:10:46.236Z,16.73
2018-07-30T21:13:16.410Z,16.20
2018-07-30T21:15:45.518Z,16.07
2018-07-30T21:18:14.319Z,17.40
2018-07-30T21:20:43.136Z,17.57
2018-07-30T21:23:11.977Z,17.70
2018-07-30T21:25:40.925Z,18.47
2018-07-30T21:28:08.628Z,21.07
2018-07-30T21:30:37.441Z,19.50
2018-07-30T21:33:06.450Z,19.97
2018-07-30T21:35:35.277Z,19.97
2018-07-30T21:38:05.191Z,21.37
2018-07-30T21:40:34.038Z,20.80
2018-07-30T21:43:02.889Z,21.37
2018-07-30T21:45:31.725Z,21.23
2018-07-30T21:48:00.736Z,21.33
2018-07-30T21:50:29.637Z,21.57
2018-07-30T21:52:58.421Z,22.37
2018-07-30T21:55:27.265Z,22.27
2018-07-30T21:57:56.072Z,22.80
2018-07-30T22:00:27.163Z,21.27
2018-07-30T22:02:57.186Z,22.53
2018-07-30T22:05:26.053Z,23.20
2018-07-30T22:07:54.860Z,20.93
2018-07-30T22:10:24.727Z,21.33
2018-07-30T22:12:55.351Z,21.93
2018-07-30T22:15:24.711Z,19.93
2018-07-30T22:17:53.596Z,20.77
2018-07-30T22:20:22.388Z,19.83
2018-07-30T22:22:51.252Z,20.93
2018-07-30T22:25:20.114Z,21.13
2018-07-30T22:27:48.969Z,21.07
2018-07-30T22:30:17.800Z,21.60
2018-07-30T22:32:46.617Z,20.43
2018-07-30T22:35:15.425Z,20.70
2018-07-30T22:37:44.237Z,20.77
2018-07-30T22:40:13.030Z,19.43
2018-07-30T22:42:41.888Z,19.47
2018-07-30T22:45:10.669Z,20.07
2018-07-30T22:47:39.495Z,19.37
2018-07-30T22:50:08.325Z,18.43
2018-07-30T22:52:37.161Z,20.57
2018-07-30T22:55:06.282Z,18.43
2018-07-30T22:57:35.050Z,19.33
2018-07-30T23:00:04.198Z,18.57
2018-07-30T23:02:33.053Z,19.00
2018-07-30T23:05:01.870Z,19.67
2018-07-30T23:07:30.912Z,19.27
2018-07-30T23:09:59.717Z,19.93
2018-07-30T23:12:28.526Z,21.40
2018-07-30T23:14:57.350Z,21.60
2018-07-30T23:17:26.195Z,21.43
2018-07-30T23:19:54.988Z,21.60
2018-07-30T23:22:23.858Z,21.10
2018-07-30T23:24:52.649Z,20.17
2018-07-30T23:27:21.465Z,20.90
2018-07-30T23:29:50.285Z,20.40
2018-07-30T23:32:19.277Z,19.87
2018-07-30T23:34:48.102Z,21.63
2018-07-30T23:37:17.068Z,21.00
2018-07-30T23:39:45.785Z,20.97
2018-07-30T23:42:14.632Z,22.07
2018-07-30T23:44:43.468Z,21.30
2018-07-30T23:47:12.291Z,24.07
2018-07-30T23:49:41.256Z,22.63
2018-07-30T23:52:10.043Z,22.43
2018-07-30T23:54:38.875Z,24.17
2018-07-30T23:57:07.724Z,21.67
2018-07-30T23:59:36.500Z,22.10
